createdAt,value
2018-10-18T00:00:06.758Z,989.23
2018-10-18T00:01:06.809Z,989.26
2018-10-18T00:02:06.650Z,989.28
2018-10-18T00:03:06.634Z,989.28
2018-10-18T00:04:06.587Z,989.28
2018-10-18T00:05:06.558Z,989.28
2018-10-18T00:06:06.706Z,989.27
2018-10-18T00:07:06.530Z,989.28
2018-10-18T00:08:06.523Z,989.30
2018-10-18T00:09:06.471Z,989.29
2018-10-18T00:10:06.406Z,989.28
2018-10-18T00:11:06.436Z,989.33
2018-10-18T00:12:06.542Z,989.33
2018-10-18T00:13:06.339Z,989.35
2018-10-18T00:14:06.525Z,989.39
2018-10-18T00:15:06.303Z,989.40
2018-10-18T00:16:06.283Z,989.39
2018-10-18T00:17:06.254Z,989.46
2018-10-18T00:18:06.402Z,989.46
2018-10-18T00:19:06.379Z,989.48
2018-10-18T00:20:06.242Z,989.50
2018-10-18T00:21:06.155Z,989.54
2018-10-18T00:22:06.102Z,989.58
2018-10-18T00:23:06.386Z,989.58
2018-10-18T00:24:06.765Z,989.57
2018-10-18T00:25:06.104Z,989.65
2018-10-18T00:26:06.112Z,989.62
2018-10-18T00:27:05.996Z,989.64
2018-10-18T00:28:05.944Z,989.62
2018-10-18T00:29:06.136Z,989.65
2018-10-18T00:30:06.034Z,989.65
2018-10-18T00:31:05.859Z,989.68
2018-10-18T00:32:06.001Z,989.70
2018-10-18T00:33:05.900Z,989.73
2018-10-18T00:34:06.166Z,989.74
2018-10-18T00:35:05.804Z,989.75
2018-10-18T00:36:06.381Z,989.74
2018-10-18T00:37:05.725Z,989.79
2018-10-18T00:38:05.764Z,989.82
2018-10-18T00:39:05.729Z,989.83
2018-10-18T00:40:05.680Z,989.80
2018-10-18T00:41:05.610Z,989.87
2018-10-18T00:42:05.618Z,989.86
2018-10-18T00:43:05.591Z,989.91
2018-10-18T00:44:05.767Z,989.95
2018-10-18T00:45:05.560Z,989.99
2018-10-18T00:46:05.473Z,989.98
2018-10-18T00:47:05.491Z,990.03
2018-10-18T00:48:05.420Z,990.03
2018-10-18T00:49:05.435Z,990.05
2018-10-18T00:50:05.557Z,990.08
2018-10-18T00:51:05.351Z,990.10
2018-10-18T00:52:05.311Z,990.11
2018-10-18T00:53:05.277Z,990.16
2018-10-18T00:54:05.337Z,990.18
2018-10-18T00:55:05.227Z,990.19
2018-10-18T00:56:05.391Z,990.19
2018-10-18T00:57:05.193Z,990.22
2018-10-18T00:58:05.141Z,990.24
2018-10-18T00:59:05.124Z,990.26
2018-10-18T01:00:05.128Z,990.30
2018-10-18T01:01:05.362Z,990.32
2018-10-18T01:02:05.077Z,990.36
2018-10-18T01:03:05.008Z,990.37
2018-10-18T01:04:05.001Z,990.41
2018-10-18T01:05:04.983Z,990.45
2018-10-18T01:06:05.051Z,990.47
2018-10-18T01:07:04.925Z,990.46
2018-10-18T01:08:04.867Z,990.48
2018-10-18T01:09:04.857Z,990.55
2018-10-18T01:10:04.846Z,990.54
2018-10-18T01:11:04.929Z,990.53
2018-10-18T01:12:04.916Z,990.58
2018-10-18T01:13:04.786Z,990.59
2018-10-18T01:14:04.815Z,990.62
2018-10-18T01:15:04.698Z,990.64
2018-10-18T01:16:04.768Z,990.66
2018-10-18T01:17:04.631Z,990.66
2018-10-18T01:18:04.686Z,990.66
2018-10-18T01:19:04.628Z,990.71
2018-10-18T01:20:04.588Z,990.69
2018-10-18T01:21:04.592Z,990.73
2018-10-18T01:22:04.532Z,990.72
2018-10-18T01:23:05.001Z,990.72
2018-10-18T01:24:04.490Z,990.75
2018-10-18T01:25:04.424Z,990.75
2018-10-18T01:26:04.420Z,990.80
2018-10-18T01:27:04.444Z,990.83
2018-10-18T01:28:04.341Z,990.82
2018-10-18T01:29:04.353Z,990.84
2018-10-18T01:30:04.367Z,990.85
2018-10-18T01:31:04.275Z,990.91
2018-10-18T01:32:04.499Z,990.90
2018-10-18T01:33:04.238Z,990.93
2018-10-18T01:34:04.203Z,990.93
2018-10-18T01:35:04.183Z,990.96
2018-10-18T01:36:04.148Z,990.97
2018-10-18T01:37:04.199Z,990.99
2018-10-18T01:38:04.180Z,990.98
2018-10-18T01:39:04.057Z,990.99
2018-10-18T01:40:04.026Z,991.00
2018-10-18T01:41:04.009Z,990.99
2018-10-18T01:42:04.059Z,991.01
2018-10-18T01:43:03.940Z,991.04
2018-10-18T01:44:04.399Z,991.09
2018-10-18T01:45:04.404Z,991.08
2018-10-18T01:46:04.102Z,991.12
2018-10-18T01:47:04.062Z,991.16
2018-10-18T01:48:03.856Z,991.16
2018-10-18T01:49:03.808Z,991.17
2018-10-18T01:50:03.857Z,991.20
2018-10-18T01:51:03.734Z,991.16
2018-10-18T01:52:03.897Z,991.18
2018-10-18T01:53:03.679Z,991.18
2018-10-18T01:54:03.773Z,991.20
2018-10-18T01:55:03.969Z,991.24
2018-10-18T01:56:03.672Z,991.20
2018-10-18T01:57:03.666Z,991.27
2018-10-18T01:58:03.530Z,991.27
2018-10-18T01:59:03.540Z,991.27
2018-10-18T02:00:04.216Z,991.24
2018-10-18T02:01:03.483Z,991.23
2018-10-18T02:02:03.508Z,991.24
2018-10-18T02:03:03.553Z,991.23
2018-10-18T02:04:03.364Z,991.30
2018-10-18T02:05:03.363Z,991.28
2018-10-18T02:06:03.362Z,991.30
2018-10-18T02:07:03.324Z,991.32
2018-10-18T02:08:03.470Z,991.32
2018-10-18T02:09:03.401Z,991.29
2018-10-18T02:10:03.318Z,991.32
2018-10-18T02:11:03.198Z,991.30
2018-10-18T02:12:03.228Z,991.31
2018-10-18T02:13:03.188Z,991.32
2018-10-18T02:14:03.278Z,991.32
2018-10-18T02:15:03.393Z,991.36
2018-10-18T02:16:03.053Z,991.36
2018-10-18T02:17:03.545Z,991.34
2018-10-18T02:18:03.047Z,991.35
2018-10-18T02:19:03.258Z,991.37
2018-10-18T02:20:02.960Z,991.32
2018-10-18T02:21:03.156Z,991.36
2018-10-18T02:22:02.896Z,991.36
2018-10-18T02:23:03.540Z,991.33
2018-10-18T02:24:02.944Z,991.35
2018-10-18T02:25:02.868Z,991.33
2018-10-18T02:26:02.875Z,991.36
2018-10-18T02:27:02.893Z,991.36
2018-10-18T02:28:02.836Z,991.33
2018-10-18T02:29:02.818Z,991.35
2018-10-18T02:30:02.871Z,991.34
2018-10-18T02:31:02.699Z,991.35
2018-10-18T02:32:02.633Z,991.41
2018-10-18T02:33:02.589Z,991.38
2018-10-18T02:34:02.795Z,991.39
2018-10-18T02:35:02.702Z,991.37
2018-10-18T02:36:02.637Z,991.38
2018-10-18T02:37:02.501Z,991.38
2018-10-18T02:38:02.573Z,991.40
2018-10-18T02:39:02.440Z,991.39
2018-10-18T02:40:02.827Z,991.41
2018-10-18T02:41:02.674Z,991.36
2018-10-18T02:42:02.396Z,991.40
2018-10-18T02:43:02.355Z,991.42
2018-10-18T02:44:02.330Z,991.44
2018-10-18T02:45:02.263Z,991.42
2018-10-18T02:46:02.232Z,991.45
2018-10-18T02:47:02.267Z,991.45
2018-10-18T02:48:02.211Z,991.43
2018-10-18T02:49:02.151Z,991.43
2018-10-18T02:50:02.202Z,991.46
2018-10-18T02:51:02.163Z,991.46
2018-10-18T02:52:02.183Z,991.47
2018-10-18T02:53:02.049Z,991.47
2018-10-18T02:54:02.072Z,991.48
2018-10-18T02:55:02.011Z,991.54
2018-10-18T02:56:01.971Z,991.52
2018-10-18T02:57:02.640Z,991.51
2018-10-18T02:58:02.362Z,991.55
2018-10-18T02:59:01.905Z,991.55
2018-10-18T03:00:01.927Z,991.56
2018-10-18T03:01:01.842Z,991.54
2018-10-18T03:02:01.926Z,991.54
2018-10-18T03:03:01.766Z,991.54
2018-10-18T03:04:01.786Z,991.53
2018-10-18T03:05:01.826Z,991.52
2018-10-18T03:06:01.765Z,991.55
2018-10-18T03:07:01.761Z,991.55
2018-10-18T03:08:01.734Z,991.55
2018-10-18T03:09:02.217Z,991.53
2018-10-18T03:10:01.609Z,991.53
2018-10-18T03:11:01.577Z,991.52
2018-10-18T03:12:01.583Z,991.49
2018-10-18T03:13:01.728Z,991.51
2018-10-18T03:14:01.987Z,991.48
2018-10-18T03:15:01.516Z,991.47
2018-10-18T03:16:01.493Z,991.44
2018-10-18T03:17:01.363Z,991.45
2018-10-18T03:18:01.479Z,991.49
2018-10-18T03:19:01.453Z,991.42
2018-10-18T03:20:01.410Z,991.45
2018-10-18T03:21:01.300Z,991.46
2018-10-18T03:22:01.327Z,991.46
2018-10-18T03:23:01.247Z,991.46
2018-10-18T03:24:01.396Z,991.42
2018-10-18T03:25:01.210Z,991.39
2018-10-18T03:26:01.226Z,991.38
2018-10-18T03:27:01.196Z,991.38
2018-10-18T03:28:01.122Z,991.35
2018-10-18T03:29:01.125Z,991.37
2018-10-18T03:30:01.048Z,991.34
2018-10-18T03:31:01.033Z,991.29
2018-10-18T03:32:00.990Z,991.31
2018-10-18T03:33:00.945Z,991.30
2018-10-18T03:34:01.040Z,991.28
2018-10-18T03:35:00.913Z,991.25
2018-10-18T03:36:00.934Z,991.25
2018-10-18T03:37:00.839Z,991.25
2018-10-18T03:38:00.796Z,991.21
2018-10-18T03:39:00.866Z,991.19
2018-10-18T03:40:00.758Z,991.15
2018-10-18T03:41:00.766Z,991.14
2018-10-18T03:42:00.787Z,991.12
2018-10-18T03:43:00.725Z,991.11
2018-10-18T03:44:00.728Z,991.11
2018-10-18T03:45:00.762Z,991.10
2018-10-18T03:46:00.577Z,991.08
2018-10-18T03:47:00.601Z,991.04
2018-10-18T03:48:00.562Z,991.07
2018-10-18T03:49:01.058Z,991.05
2018-10-18T03:50:00.529Z,991.06
2018-10-18T03:51:00.576Z,991.05
2018-10-18T03:52:00.442Z,991.04
2018-10-18T03:53:00.396Z,991.05
2018-10-18T03:54:00.445Z,991.04
2018-10-18T03:55:00.370Z,990.99
2018-10-18T03:56:00.341Z,991.00
2018-10-18T03:57:00.409Z,990.99
2018-10-18T03:58:00.306Z,991.00
2018-10-18T03:59:00.260Z,990.99
2018-10-18T04:00:00.313Z,990.97
2018-10-18T04:01:00.211Z,991.00
2018-10-18T04:02:00.200Z,990.99
2018-10-18T04:03:00.144Z,991.01
2018-10-18T04:04:00.095Z,990.98
2018-10-18T04:05:00.102Z,990.96
2018-10-18T04:06:00.096Z,990.97
2018-10-18T04:07:00.087Z,990.96
2018-10-18T04:08:00.024Z,990.93
2018-10-18T04:09:00.004Z,990.94
2018-10-18T04:09:59.971Z,990.90
2018-10-18T04:10:59.954Z,990.90
2018-10-18T04:12:00.044Z,990.90
2018-10-18T04:12:59.853Z,990.88
2018-10-18T04:13:59.858Z,990.93
2018-10-18T04:14:59.805Z,990.92
2018-10-18T04:15:59.801Z,990.89
2018-10-18T04:16:59.759Z,990.89
2018-10-18T04:18:00.010Z,990.89
2018-10-18T04:18:59.729Z,990.89
2018-10-18T04:19:59.685Z,990.88
2018-10-18T04:20:59.650Z,990.86
2018-10-18T04:21:59.626Z,990.81
2018-10-18T04:22:59.645Z,990.85
2018-10-18T04:23:59.597Z,990.82
2018-10-18T04:24:59.556Z,990.82
2018-10-18T04:25:59.567Z,990.85
2018-10-18T04:26:59.479Z,990.83
2018-10-18T04:27:59.469Z,990.82
2018-10-18T04:28:59.537Z,990.85
2018-10-18T04:29:59.490Z,990.81
2018-10-18T04:30:59.394Z,990.86
2018-10-18T04:31:59.358Z,990.81
2018-10-18T04:32:59.323Z,990.81
2018-10-18T04:33:59.293Z,990.80
2018-10-18T04:34:59.399Z,990.82
2018-10-18T04:35:59.255Z,990.81
2018-10-18T04:36:59.543Z,990.80
2018-10-18T04:37:59.209Z,990.79
2018-10-18T04:38:59.180Z,990.80
2018-10-18T04:39:59.230Z,990.83
2018-10-18T04:40:59.113Z,990.79
2018-10-18T04:41:59.124Z,990.78
2018-10-18T04:42:59.080Z,990.77
2018-10-18T04:43:59.032Z,990.76
2018-10-18T04:44:59.096Z,990.74
2018-10-18T04:45:58.963Z,990.70
2018-10-18T04:46:58.960Z,990.73
2018-10-18T04:47:59.103Z,990.70
2018-10-18T04:48:59.020Z,990.67
2018-10-18T04:49:58.861Z,990.64
2018-10-18T04:50:58.954Z,990.64
2018-10-18T04:51:58.813Z,990.60
2018-10-18T04:52:58.790Z,990.56
2018-10-18T04:53:58.753Z,990.56
2018-10-18T04:54:58.762Z,990.56
2018-10-18T04:55:58.811Z,990.54
2018-10-18T04:56:58.751Z,990.52
2018-10-18T04:57:58.643Z,990.51
2018-10-18T04:58:58.625Z,990.48
2018-10-18T04:59:58.612Z,990.46
2018-10-18T05:00:58.699Z,990.47
2018-10-18T05:01:58.551Z,990.48
2018-10-18T05:02:58.531Z,990.46
2018-10-18T05:03:58.479Z,990.46
2018-10-18T05:04:58.492Z,990.46
2018-10-18T05:05:58.445Z,990.42
2018-10-18T05:06:58.528Z,990.44
2018-10-18T05:07:58.360Z,990.44
2018-10-18T05:08:58.357Z,990.40
2018-10-18T05:09:58.313Z,990.45
2018-10-18T05:10:58.300Z,990.41
2018-10-18T05:11:58.262Z,990.40
2018-10-18T05:12:58.337Z,990.40
2018-10-18T05:13:58.212Z,990.41
2018-10-18T05:14:58.178Z,990.37
2018-10-18T05:15:58.160Z,990.34
2018-10-18T05:16:58.143Z,990.34
2018-10-18T05:17:58.194Z,990.36
2018-10-18T05:18:58.089Z,990.37
2018-10-18T05:19:58.049Z,990.31
2018-10-18T05:20:58.020Z,990.33
2018-10-18T05:21:57.990Z,990.33
2018-10-18T05:22:58.006Z,990.37
2018-10-18T05:23:58.030Z,990.35
2018-10-18T05:24:57.985Z,990.33
2018-10-18T05:25:57.885Z,990.34
2018-10-18T05:26:57.852Z,990.32
2018-10-18T05:27:57.831Z,990.34
2018-10-18T05:28:57.903Z,990.34
2018-10-18T05:29:57.820Z,990.36
2018-10-18T05:30:57.788Z,990.31
2018-10-18T05:31:57.730Z,990.30
2018-10-18T05:32:57.711Z,990.33
2018-10-18T05:33:57.758Z,990.32
2018-10-18T05:34:57.650Z,990.32
2018-10-18T05:35:57.604Z,990.31
2018-10-18T05:36:57.630Z,990.26
2018-10-18T05:37:57.564Z,990.26
2018-10-18T05:38:57.668Z,990.27
2018-10-18T05:39:57.489Z,990.24
2018-10-18T05:40:57.495Z,990.25
2018-10-18T05:41:57.446Z,990.22
2018-10-18T05:42:57.500Z,990.21
2018-10-18T05:43:57.406Z,990.21
2018-10-18T05:44:57.521Z,990.23
2018-10-18T05:45:57.357Z,990.17
2018-10-18T05:46:57.379Z,990.18
2018-10-18T05:47:57.279Z,990.20
2018-10-18T05:48:57.297Z,990.19
2018-10-18T05:49:57.231Z,990.16
2018-10-18T05:50:57.369Z,990.15
2018-10-18T05:51:57.169Z,990.13
2018-10-18T05:52:57.142Z,990.12
2018-10-18T05:53:57.227Z,990.13
2018-10-18T05:54:57.105Z,990.09
2018-10-18T05:55:57.070Z,990.07
2018-10-18T05:56:57.173Z,990.09
2018-10-18T05:57:57.011Z,990.01
2018-10-18T05:58:56.995Z,990.04
2018-10-18T05:59:56.950Z,990.05
2018-10-18T06:00:56.962Z,990.04
2018-10-18T06:01:56.900Z,990.02
2018-10-18T06:02:57.032Z,989.99
2018-10-18T06:03:56.834Z,989.95
2018-10-18T06:04:56.812Z,989.95
2018-10-18T06:05:56.782Z,989.95
2018-10-18T06:06:56.796Z,989.92
2018-10-18T06:07:56.892Z,989.93
2018-10-18T06:08:56.713Z,989.90
2018-10-18T06:09:56.723Z,989.89
2018-10-18T06:10:56.645Z,989.90
2018-10-18T06:11:56.627Z,989.88
2018-10-18T06:12:56.811Z,989.86
2018-10-18T06:13:56.558Z,989.84
2018-10-18T06:14:56.580Z,989.87
2018-10-18T06:15:56.506Z,989.82
2018-10-18T06:16:56.495Z,989.83
2018-10-18T06:17:56.599Z,989.81
2018-10-18T06:18:56.472Z,989.74
2018-10-18T06:19:56.416Z,989.76
2018-10-18T06:20:56.380Z,989.75
2018-10-18T06:21:56.353Z,989.73
2018-10-18T06:22:56.394Z,989.75
2018-10-18T06:23:56.457Z,989.72
2018-10-18T06:24:56.324Z,989.70
2018-10-18T06:25:56.239Z,989.66
2018-10-18T06:26:56.201Z,989.66
2018-10-18T06:27:56.205Z,989.68
2018-10-18T06:28:56.280Z,989.66
2018-10-18T06:29:56.280Z,989.64
2018-10-18T06:30:56.096Z,989.64
2018-10-18T06:31:56.078Z,989.65
2018-10-18T06:32:56.082Z,989.61
2018-10-18T06:33:56.015Z,989.65
2018-10-18T06:34:56.158Z,989.61
2018-10-18T06:35:56.118Z,989.59
2018-10-18T06:36:56.044Z,989.62
2018-10-18T06:37:55.928Z,989.58
2018-10-18T06:38:55.947Z,989.63
2018-10-18T06:39:55.861Z,989.61
2018-10-18T06:40:56.005Z,989.56
2018-10-18T06:41:55.805Z,989.56
2018-10-18T06:42:55.801Z,989.55
2018-10-18T06:43:55.762Z,989.54
2018-10-18T06:44:55.742Z,989.54
2018-10-18T06:45:55.837Z,989.53
2018-10-18T06:46:55.770Z,989.51
2018-10-18T06:47:55.780Z,989.55
2018-10-18T06:48:55.670Z,989.56
2018-10-18T06:49:55.586Z,989.53
2018-10-18T06:50:55.768Z,989.52
2018-10-18T06:51:55.505Z,989.53
2018-10-18T06:52:55.505Z,989.50
2018-10-18T06:53:55.492Z,989.50
2018-10-18T06:54:55.479Z,989.52
2018-10-18T06:55:55.432Z,989.52
2018-10-18T06:56:55.495Z,989.53
2018-10-18T06:57:55.366Z,989.54
2018-10-18T06:58:55.339Z,989.50
2018-10-18T06:59:55.343Z,989.48
2018-10-18T07:00:55.293Z,989.44
2018-10-18T07:01:55.251Z,989.43
2018-10-18T07:02:55.326Z,989.45
2018-10-18T07:03:55.223Z,989.41
2018-10-18T07:04:55.158Z,989.38
2018-10-18T07:05:55.183Z,989.38
2018-10-18T07:06:55.116Z,989.38
2018-10-18T07:07:55.157Z,989.37
2018-10-18T07:08:55.225Z,989.34
2018-10-18T07:09:55.029Z,989.34
2018-10-18T07:10:55.206Z,989.33
2018-10-18T07:11:55.011Z,989.34
2018-10-18T07:12:54.943Z,989.33
2018-10-18T07:13:55.036Z,989.34
2018-10-18T07:14:54.898Z,989.33
2018-10-18T07:15:54.890Z,989.29
2018-10-18T07:16:54.844Z,989.28
2018-10-18T07:17:54.842Z,989.26
2018-10-18T07:18:54.892Z,989.23
2018-10-18T07:19:54.770Z,989.25
2018-10-18T07:20:54.751Z,989.21
2018-10-18T07:21:54.706Z,989.22
2018-10-18T07:22:54.692Z,989.22
2018-10-18T07:23:54.783Z,989.22
2018-10-18T07:24:54.642Z,989.21
2018-10-18T07:25:54.623Z,989.22
2018-10-18T07:26:54.620Z,989.18
2018-10-18T07:27:54.552Z,989.19
2018-10-18T07:28:54.626Z,989.20
2018-10-18T07:29:54.516Z,989.19
2018-10-18T07:30:54.463Z,989.18
2018-10-18T07:31:54.434Z,989.16
2018-10-18T07:32:54.404Z,989.16
2018-10-18T07:33:54.375Z,989.14
2018-10-18T07:34:54.488Z,989.08
2018-10-18T07:35:54.369Z,989.12
2018-10-18T07:36:54.276Z,989.09
2018-10-18T07:37:54.259Z,989.11
2018-10-18T07:38:54.252Z,989.06
2018-10-18T07:39:54.207Z,989.10
2018-10-18T07:40:54.287Z,989.09
2018-10-18T07:41:54.170Z,989.08
2018-10-18T07:42:54.135Z,989.11
2018-10-18T07:43:54.110Z,989.09
2018-10-18T07:44:54.078Z,989.10
2018-10-18T07:45:54.152Z,989.10
2018-10-18T07:46:54.193Z,989.07
2018-10-18T07:47:54.071Z,989.08
2018-10-18T07:48:53.979Z,989.08
2018-10-18T07:49:53.957Z,989.04
2018-10-18T07:50:54.022Z,989.03
2018-10-18T07:51:53.899Z,988.99
2018-10-18T07:52:53.881Z,989.02
2018-10-18T07:53:53.821Z,989.00
2018-10-18T07:54:53.820Z,989.00
2018-10-18T07:55:53.881Z,988.98
2018-10-18T07:56:53.734Z,988.97
2018-10-18T07:57:53.728Z,988.96
2018-10-18T07:58:53.690Z,988.99
2018-10-18T07:59:53.735Z,989.00
2018-10-18T08:00:53.871Z,988.99
2018-10-18T08:01:53.611Z,989.00
2018-10-18T08:02:53.582Z,989.01
2018-10-18T08:03:53.533Z,988.99
2018-10-18T08:04:53.525Z,989.01
2018-10-18T08:05:53.643Z,989.01
2018-10-18T08:06:53.500Z,989.03
2018-10-18T08:07:53.436Z,989.02
2018-10-18T08:08:53.411Z,988.97
2018-10-18T08:09:53.424Z,989.00
2018-10-18T08:10:53.408Z,988.99
2018-10-18T08:11:53.437Z,988.98
2018-10-18T08:12:53.353Z,989.01
2018-10-18T08:13:53.301Z,988.99
2018-10-18T08:14:53.253Z,988.97
2018-10-18T08:15:53.227Z,988.97
2018-10-18T08:16:53.368Z,989.00
2018-10-18T08:17:53.170Z,988.97
2018-10-18T08:18:53.177Z,988.95
2018-10-18T08:19:53.107Z,988.97
2018-10-18T08:20:53.079Z,988.96
2018-10-18T08:21:53.167Z,988.96
2018-10-18T08:22:53.047Z,988.96
2018-10-18T08:23:52.991Z,988.99
2018-10-18T08:24:52.992Z,988.97
2018-10-18T08:25:52.942Z,988.98
2018-10-18T08:26:53.018Z,988.99
2018-10-18T08:27:52.908Z,989.00
2018-10-18T08:28:52.868Z,989.04
2018-10-18T08:29:53.365Z,989.02
2018-10-18T08:30:52.828Z,989.04
2018-10-18T08:31:52.971Z,989.04
2018-10-18T08:32:52.745Z,989.03
2018-10-18T08:33:52.731Z,989.02
2018-10-18T08:34:52.693Z,989.04
2018-10-18T08:35:52.674Z,989.03
2018-10-18T08:36:52.740Z,989.07
2018-10-18T08:37:52.825Z,989.05
2018-10-18T08:38:52.584Z,989.08
2018-10-18T08:39:52.568Z,989.07
2018-10-18T08:40:52.632Z,989.04
2018-10-18T08:41:52.503Z,989.07
2018-10-18T08:42:52.627Z,989.09
2018-10-18T08:43:52.467Z,989.09
2018-10-18T08:44:52.426Z,989.08
2018-10-18T08:45:52.423Z,989.04
2018-10-18T08:46:52.367Z,989.03
2018-10-18T08:47:52.348Z,989.02
2018-10-18T08:48:52.561Z,988.97
2018-10-18T08:49:52.376Z,988.96
2018-10-18T08:50:52.271Z,988.97
2018-10-18T08:51:52.255Z,988.96
2018-10-18T08:52:52.212Z,988.96
2018-10-18T08:53:52.168Z,988.90
2018-10-18T08:54:52.399Z,988.90
2018-10-18T08:55:52.125Z,988.88
2018-10-18T08:56:52.097Z,988.83
2018-10-18T08:57:52.063Z,988.86
2018-10-18T08:58:52.053Z,988.84
2018-10-18T08:59:52.218Z,988.79
2018-10-18T09:00:52.072Z,988.82
2018-10-18T09:01:51.987Z,988.81
2018-10-18T09:02:51.947Z,988.83
2018-10-18T09:03:51.928Z,988.82
2018-10-18T09:04:52.079Z,988.79
2018-10-18T09:05:51.862Z,988.87
2018-10-18T09:06:51.880Z,988.83
2018-10-18T09:07:51.783Z,988.85
2018-10-18T09:08:51.785Z,988.83
2018-10-18T09:09:51.883Z,988.84
2018-10-18T09:10:51.721Z,988.84
2018-10-18T09:11:51.706Z,988.85
2018-10-18T09:12:51.652Z,988.85
2018-10-18T09:13:51.632Z,988.84
2018-10-18T09:14:51.662Z,988.84
2018-10-18T09:15:51.804Z,988.83
2018-10-18T09:16:51.542Z,988.89
2018-10-18T09:17:51.525Z,988.86
2018-10-18T09:18:51.559Z,988.86
2018-10-18T09:19:51.483Z,988.85
2018-10-18T09:20:51.443Z,988.84
2018-10-18T09:21:51.578Z,988.81
2018-10-18T09:22:51.379Z,988.82
2018-10-18T09:23:51.430Z,988.83
2018-10-18T09:24:51.321Z,988.86
2018-10-18T09:25:51.288Z,988.85
2018-10-18T09:26:51.284Z,988.82
2018-10-18T09:27:51.438Z,988.81
2018-10-18T09:28:51.232Z,988.78
2018-10-18T09:29:51.184Z,988.75
2018-10-18T09:30:51.190Z,988.73
2018-10-18T09:31:51.135Z,988.70
2018-10-18T09:32:51.115Z,988.68
2018-10-18T09:33:51.285Z,988.67
2018-10-18T09:34:51.062Z,988.65
2018-10-18T09:35:51.027Z,988.65
2018-10-18T09:36:51.013Z,988.66
2018-10-18T09:37:50.966Z,988.68
2018-10-18T09:38:51.102Z,988.66
2018-10-18T09:39:50.927Z,988.69
2018-10-18T09:40:50.897Z,988.68
2018-10-18T09:41:50.874Z,988.69
2018-10-18T09:42:50.838Z,988.66
2018-10-18T09:43:51.009Z,988.64
2018-10-18T09:44:50.839Z,988.62
2018-10-18T09:45:50.729Z,988.61
2018-10-18T09:46:50.745Z,988.65
2018-10-18T09:47:50.683Z,988.60
2018-10-18T09:48:50.708Z,988.60
2018-10-18T09:49:50.773Z,988.58
2018-10-18T09:50:50.610Z,988.56
2018-10-18T09:51:50.590Z,988.60
2018-10-18T09:52:50.584Z,988.61
2018-10-18T09:53:50.538Z,988.58
2018-10-18T09:54:50.502Z,988.60
2018-10-18T09:55:50.694Z,988.54
2018-10-18T09:56:50.457Z,988.61
2018-10-18T09:57:50.431Z,988.59
2018-10-18T09:58:50.589Z,988.60
2018-10-18T09:59:50.363Z,988.59
2018-10-18T10:00:50.344Z,988.59
2018-10-18T10:01:50.512Z,988.62
2018-10-18T10:02:50.291Z,988.58
2018-10-18T10:03:50.247Z,988.58
2018-10-18T10:04:50.240Z,988.61
2018-10-18T10:05:50.209Z,988.60
2018-10-18T10:06:50.158Z,988.62
2018-10-18T10:07:50.338Z,988.65
2018-10-18T10:08:50.115Z,988.64
2018-10-18T10:09:50.095Z,988.65
2018-10-18T10:10:50.055Z,988.63
2018-10-18T10:11:50.163Z,988.67
2018-10-18T10:12:50.334Z,988.67
2018-10-18T10:13:50.038Z,988.66
2018-10-18T10:14:49.960Z,988.66
2018-10-18T10:15:49.909Z,988.69
2018-10-18T10:16:49.922Z,988.68
2018-10-18T10:17:50.135Z,988.64
2018-10-18T10:18:49.837Z,988.66
2018-10-18T10:19:49.817Z,988.69
2018-10-18T10:20:49.795Z,988.70
2018-10-18T10:21:49.770Z,988.69
2018-10-18T10:22:49.776Z,988.71
2018-10-18T10:23:49.908Z,988.69
2018-10-18T10:24:49.699Z,988.69
2018-10-18T10:25:49.644Z,988.67
2018-10-18T10:26:49.610Z,988.64
2018-10-18T10:27:49.615Z,988.65
2018-10-18T10:28:49.560Z,988.61
2018-10-18T10:29:49.721Z,988.62
2018-10-18T10:30:49.512Z,988.64
2018-10-18T10:31:49.481Z,988.62
2018-10-18T10:32:49.580Z,988.68
2018-10-18T10:33:49.421Z,988.68
2018-10-18T10:34:49.400Z,988.68
2018-10-18T10:35:49.475Z,988.71
2018-10-18T10:36:49.357Z,988.69
2018-10-18T10:37:49.307Z,988.78
2018-10-18T10:38:49.283Z,988.77
2018-10-18T10:39:49.275Z,988.78
2018-10-18T10:40:49.226Z,988.77
2018-10-18T10:41:49.313Z,988.76
2018-10-18T10:42:49.212Z,988.77
2018-10-18T10:43:49.154Z,988.75
2018-10-18T10:44:49.197Z,988.79
2018-10-18T10:45:49.209Z,988.81
2018-10-18T10:46:49.209Z,988.80
2018-10-18T10:47:49.062Z,988.80
2018-10-18T10:48:49.015Z,988.80
2018-10-18T10:49:48.995Z,988.80
2018-10-18T10:50:48.971Z,988.79
2018-10-18T10:51:49.026Z,988.79
2018-10-18T10:52:48.913Z,988.82
2018-10-18T10:53:48.876Z,988.88
2018-10-18T10:54:48.862Z,988.82
2018-10-18T10:55:48.826Z,988.87
2018-10-18T10:56:48.848Z,988.82
2018-10-18T10:57:48.857Z,988.87
2018-10-18T10:58:48.794Z,988.86
2018-10-18T10:59:48.709Z,988.90
2018-10-18T11:00:48.682Z,988.94
2018-10-18T11:01:48.658Z,988.95
2018-10-18T11:02:48.731Z,988.97
2018-10-18T11:03:48.606Z,989.03
2018-10-18T11:04:48.564Z,989.03
2018-10-18T11:05:48.549Z,989.05
2018-10-18T11:06:48.503Z,989.03
2018-10-18T11:07:48.491Z,989.04
2018-10-18T11:08:48.567Z,989.05
2018-10-18T11:09:48.502Z,989.06
2018-10-18T11:10:48.404Z,989.05
2018-10-18T11:11:48.403Z,989.08
2018-10-18T11:12:48.351Z,989.08
2018-10-18T11:13:48.349Z,989.05
2018-10-18T11:14:48.395Z,989.12
2018-10-18T11:15:48.262Z,989.10
2018-10-18T11:16:48.243Z,989.12
2018-10-18T11:17:48.206Z,989.12
2018-10-18T11:18:48.202Z,989.12
2018-10-18T11:19:48.263Z,989.13
2018-10-18T11:20:48.135Z,989.13
2018-10-18T11:21:48.184Z,989.10
2018-10-18T11:22:48.071Z,989.11
2018-10-18T11:23:48.074Z,989.11
2018-10-18T11:24:48.273Z,989.15
2018-10-18T11:25:48.006Z,989.17
2018-10-18T11:26:47.967Z,989.15
2018-10-18T11:27:47.934Z,989.16
2018-10-18T11:28:47.921Z,989.18
2018-10-18T11:29:47.880Z,989.22
2018-10-18T11:30:47.947Z,989.22
2018-10-18T11:31:47.857Z,989.24
2018-10-18T11:32:47.801Z,989.32
2018-10-18T11:33:47.780Z,989.35
2018-10-18T11:34:47.742Z,989.37
2018-10-18T11:35:47.808Z,989.38
2018-10-18T11:36:47.708Z,989.37
2018-10-18T11:37:47.683Z,989.39
2018-10-18T11:38:47.648Z,989.39
2018-10-18T11:39:47.603Z,989.35
2018-10-18T11:40:47.679Z,989.42
2018-10-18T11:41:47.570Z,989.43
2018-10-18T11:42:47.578Z,989.47
2018-10-18T11:43:47.510Z,989.42
2018-10-18T11:44:47.461Z,989.45
2018-10-18T11:45:47.440Z,989.45
2018-10-18T11:46:47.506Z,989.48
2018-10-18T11:47:47.390Z,989.49
2018-10-18T11:48:47.347Z,989.48
2018-10-18T11:49:47.350Z,989.51
2018-10-18T11:50:47.326Z,989.52
2018-10-18T11:51:47.408Z,989.52
2018-10-18T11:52:47.339Z,989.56
2018-10-18T11:53:47.219Z,989.58
2018-10-18T11:54:47.213Z,989.59
2018-10-18T11:55:47.158Z,989.60
2018-10-18T11:56:47.259Z,989.60
2018-10-18T11:57:47.438Z,989.62
2018-10-18T11:58:47.792Z,989.63
2018-10-18T11:59:47.048Z,989.69
2018-10-18T12:00:47.055Z,989.67
2018-10-18T12:01:47.038Z,989.72
2018-10-18T12:02:47.071Z,989.76
2018-10-18T12:03:47.068Z,989.83
2018-10-18T12:04:47.096Z,989.85
2018-10-18T12:05:46.899Z,989.86
2018-10-18T12:06:46.853Z,989.91
2018-10-18T12:07:47.361Z,989.92
2018-10-18T12:08:46.919Z,989.96
2018-10-18T12:09:46.786Z,989.96
2018-10-18T12:10:46.767Z,989.99
2018-10-18T12:11:46.731Z,990.00
2018-10-18T12:12:46.701Z,990.00
2018-10-18T12:13:46.804Z,990.05
2018-10-18T12:14:46.657Z,990.08
2018-10-18T12:15:46.619Z,990.09
2018-10-18T12:16:46.593Z,990.14
2018-10-18T12:17:46.582Z,990.18
2018-10-18T12:18:46.632Z,990.19
2018-10-18T12:19:46.503Z,990.19
2018-10-18T12:20:46.500Z,990.22
2018-10-18T12:21:46.649Z,990.24
2018-10-18T12:22:46.413Z,990.27
2018-10-18T12:23:46.389Z,990.27
2018-10-18T12:24:46.504Z,990.27
2018-10-18T12:25:46.390Z,990.33
2018-10-18T12:26:46.322Z,990.33
2018-10-18T12:27:46.512Z,990.32